Summit, North Carolina
Current Conditions -  °F | °C
As of 1:54 AM on Monday 22 Dec 2014 (Local Time) from KGSO Reporting Station
Overcast Overcast  
Wind Chill: 33°   Ceiling: 3300
Heat Index: 39°   Visibility: 8mi
Dew Point: 32°   Wind: 9mph
Humidity: 76%   Direction: 60°ENE
Pressure: 30.19"   Gusts: NA
Location:  36.1157°N, 79.7378°W
Report Text: KGSO 220654Z 06008KT 8SM OVC033 04/00 A3019 RMK AO2 SLP224 T00390000
Loading
Personal Weather Stations






























Interactive Weather Map New forecast layout! Learn more

10-Day Weather Forecast

Advertisements
Track Severe Weather on mobile